WLR weather

Loring Seaplane Base
Loring, Alaska, United States

Public forecast

Using degrees Fahrenheit for public forecast. Weather courtesy of forecast.io.

Closest aviation weather report (METAR) to Loring Seaplane Base

Closest report is Ketchikan International Airport, 15.0 nm (27.7 km) S. Retrieved 2020/08/08 08:15 UTC (17 minutes ago):

PAKT 080815Z AUTO 14004KT 10SM FEW008 BKN020 OVC070 13/12 A3002

Closest aviation forecast (TAF) to Loring Seaplane Base

Closest forecast is Ketchikan International Airport, 15.0 nm (27.7 km) S. Retrieved 2020/08/08 06:36 UTC (2 hours ago):

TAF PAKT 080533Z 0806/0906 14008KT P6SM -SHRA SCT025 OVC050 FM081400 13009KT P6SM VCSH SCT010 OVC025 FM081800 12011KT 6SM -SHRA BKN025 OVC040 FM090000 13008KT P6SM VCSH SCT025 OVC040 AMD LTD TO CLD VIS AND WIND 0806/0815